sensor_id;sensor_type;location;lat;lon;timestamp;P1;durP1;ratioP1;P2;durP2;ratioP2
45136;SDS011;30894;51.740;19.498;2022-10-16T00:02:14;7.10;;;3.88;;
45136;SDS011;30894;51.740;19.498;2022-10-16T00:04:43;8.48;;;4.60;;
45136;SDS011;30894;51.740;19.498;2022-10-16T00:07:17;5.40;;;3.47;;
45136;SDS011;30894;51.740;19.498;2022-10-16T00:09:51;8.85;;;4.43;;
45136;SDS011;30894;51.740;19.498;2022-10-16T00:15:24;5.32;;;3.17;;
45136;SDS011;30894;51.740;19.498;2022-10-16T00:17:50;10.27;;;4.75;;
45136;SDS011;30894;51.740;19.498;2022-10-16T00:20:16;10.27;;;3.40;;
45136;SDS011;30894;51.740;19.498;2022-10-16T00:22:59;8.10;;;3.90;;
45136;SDS011;30894;51.740;19.498;2022-10-16T00:25:25;7.10;;;3.42;;
45136;SDS011;30894;51.740;19.498;2022-10-16T00:28:00;8.23;;;4.07;;
45136;SDS011;30894;51.740;19.498;2022-10-16T00:30:28;10.35;;;3.95;;
45136;SDS011;30894;51.740;19.498;2022-10-16T00:33:03;7.70;;;3.55;;
45136;SDS011;30894;51.740;19.498;2022-10-16T00:35:30;8.75;;;3.92;;
45136;SDS011;30894;51.740;19.498;2022-10-16T00:38:05;8.73;;;3.17;;
45136;SDS011;30894;51.740;19.498;2022-10-16T00:40:33;9.43;;;3.85;;
45136;SDS011;30894;51.740;19.498;2022-10-16T00:43:08;8.35;;;4.45;;
45136;SDS011;30894;51.740;19.498;2022-10-16T00:45:56;10.35;;;3.70;;
45136;SDS011;30894;51.740;19.498;2022-10-16T00:48:22;6.68;;;3.42;;
45136;SDS011;30894;51.740;19.498;2022-10-16T00:50:57;8.10;;;3.30;;
45136;SDS011;30894;51.740;19.498;2022-10-16T00:53:27;6.78;;;3.38;;
45136;SDS011;30894;51.740;19.498;2022-10-16T00:56:00;6.05;;;3.60;;
45136;SDS011;30894;51.740;19.498;2022-10-16T00:58:29;10.65;;;3.83;;
45136;SDS011;30894;51.740;19.498;2022-10-16T01:01:03;6.85;;;3.47;;
45136;SDS011;30894;51.740;19.498;2022-10-16T01:11:37;7.85;;;3.20;;
45136;SDS011;30894;51.740;19.498;2022-10-16T01:14:45;7.97;;;3.67;;
45136;SDS011;30894;51.740;19.498;2022-10-16T01:26:18;4.95;;;3.03;;
45136;SDS011;30894;51.740;19.498;2022-10-16T01:29:03;7.53;;;3.65;;
45136;SDS011;30894;51.740;19.498;2022-10-16T01:31:48;19.02;;;2.83;;
45136;SDS011;30894;51.740;19.498;2022-10-16T01:40:22;7.95;;;3.72;;
45136;SDS011;30894;51.740;19.498;2022-10-16T01:43:10;9.93;;;3.70;;
45136;SDS011;30894;51.740;19.498;2022-10-16T01:45:41;7.03;;;3.20;;
45136;SDS011;30894;51.740;19.498;2022-10-16T01:48:11;4.00;;;2.78;;
45136;SDS011;30894;51.740;19.498;2022-10-16T01:50:43;5.72;;;3.33;;
45136;SDS011;30894;51.740;19.498;2022-10-16T01:53:29;6.47;;;3.50;;
45136;SDS011;30894;51.740;19.498;2022-10-16T01:55:59;5.88;;;3.20;;
45136;SDS011;30894;51.740;19.498;2022-10-16T01:58:30;7.25;;;3.42;;
45136;SDS011;30894;51.740;19.498;2022-10-16T02:01:04;6.10;;;3.10;;
45136;SDS011;30894;51.740;19.498;2022-10-16T02:03:35;8.25;;;3.67;;
45136;SDS011;30894;51.740;19.498;2022-10-16T02:06:06;5.70;;;3.13;;
45136;SDS011;30894;51.740;19.498;2022-10-16T02:08:40;7.95;;;3.45;;
45136;SDS011;30894;51.740;19.498;2022-10-16T02:11:09;7.35;;;3.70;;
45136;SDS011;30894;51.740;19.498;2022-10-16T02:13:41;7.38;;;3.85;;
45136;SDS011;30894;51.740;19.498;2022-10-16T02:16:13;6.25;;;3.70;;
45136;SDS011;30894;51.740;19.498;2022-10-16T02:18:42;9.73;;;4.28;;
45136;SDS011;30894;51.740;19.498;2022-10-16T02:24:19;6.40;;;4.03;;
45136;SDS011;30894;51.740;19.498;2022-10-16T02:27:17;11.23;;;4.18;;
45136;SDS011;30894;51.740;19.498;2022-10-16T02:33:07;9.63;;;4.03;;
45136;SDS011;30894;51.740;19.498;2022-10-16T02:35:36;7.55;;;4.43;;
45136;SDS011;30894;51.740;19.498;2022-10-16T02:38:12;13.75;;;4.50;;
45136;SDS011;30894;51.740;19.498;2022-10-16T02:40:40;7.55;;;4.47;;
45136;SDS011;30894;51.740;19.498;2022-10-16T02:43:10;11.85;;;4.60;;
45136;SDS011;30894;51.740;19.498;2022-10-16T02:45:37;14.88;;;5.28;;
45136;SDS011;30894;51.740;19.498;2022-10-16T02:48:15;6.15;;;3.35;;
45136;SDS011;30894;51.740;19.498;2022-10-16T02:50:43;17.48;;;4.97;;
45136;SDS011;30894;51.740;19.498;2022-10-16T02:53:09;8.70;;;4.38;;
45136;SDS011;30894;51.740;19.498;2022-10-16T02:55:47;11.68;;;4.75;;
45136;SDS011;30894;51.740;19.498;2022-10-16T02:58:15;6.85;;;3.55;;
45136;SDS011;30894;51.740;19.498;2022-10-16T03:00:52;9.73;;;3.85;;
45136;SDS011;30894;51.740;19.498;2022-10-16T03:03:21;12.18;;;4.72;;
45136;SDS011;30894;51.740;19.498;2022-10-16T03:05:54;9.20;;;5.15;;
45136;SDS011;30894;51.740;19.498;2022-10-16T03:08:28;10.48;;;4.95;;
45136;SDS011;30894;51.740;19.498;2022-10-16T03:10:57;14.23;;;4.38;;
45136;SDS011;30894;51.740;19.498;2022-10-16T03:13:31;8.95;;;3.75;;
45136;SDS011;30894;51.740;19.498;2022-10-16T03:15:59;10.18;;;4.32;;
45136;SDS011;30894;51.740;19.498;2022-10-16T03:18:32;7.35;;;3.60;;
45136;SDS011;30894;51.740;19.498;2022-10-16T03:21:01;11.13;;;4.30;;
45136;SDS011;30894;51.740;19.498;2022-10-16T03:23:35;6.90;;;3.90;;
45136;SDS011;30894;51.740;19.498;2022-10-16T03:26:03;7.70;;;3.90;;
45136;SDS011;30894;51.740;19.498;2022-10-16T03:28:37;7.45;;;3.30;;
45136;SDS011;30894;51.740;19.498;2022-10-16T03:31:06;7.18;;;4.18;;
45136;SDS011;30894;51.740;19.498;2022-10-16T03:33:32;7.32;;;3.67;;
45136;SDS011;30894;51.740;19.498;2022-10-16T03:36:09;9.43;;;3.55;;
45136;SDS011;30894;51.740;19.498;2022-10-16T03:38:42;7.18;;;3.10;;
45136;SDS011;30894;51.740;19.498;2022-10-16T03:41:16;11.30;;;4.63;;
45136;SDS011;30894;51.740;19.498;2022-10-16T03:43:44;6.40;;;3.63;;
45136;SDS011;30894;51.740;19.498;2022-10-16T03:46:18;10.45;;;4.25;;
45136;SDS011;30894;51.740;19.498;2022-10-16T03:48:47;9.27;;;3.70;;
45136;SDS011;30894;51.740;19.498;2022-10-16T03:51:21;10.07;;;4.50;;
45136;SDS011;30894;51.740;19.498;2022-10-16T03:53:49;9.25;;;4.25;;
45136;SDS011;30894;51.740;19.498;2022-10-16T03:56:23;6.82;;;3.85;;
45136;SDS011;30894;51.740;19.498;2022-10-16T03:58:51;11.10;;;5.13;;
45136;SDS011;30894;51.740;19.498;2022-10-16T04:01:25;5.72;;;2.92;;
45136;SDS011;30894;51.740;19.498;2022-10-16T04:03:54;13.85;;;5.18;;
45136;SDS011;30894;51.740;19.498;2022-10-16T04:06:20;7.65;;;4.00;;
45136;SDS011;30894;51.740;19.498;2022-10-16T04:09:00;9.73;;;4.57;;
45136;SDS011;30894;51.740;19.498;2022-10-16T04:11:29;12.25;;;4.75;;
45136;SDS011;30894;51.740;19.498;2022-10-16T04:14:04;13.20;;;4.40;;
45136;SDS011;30894;51.740;19.498;2022-10-16T04:16:32;6.70;;;3.03;;
45136;SDS011;30894;51.740;19.498;2022-10-16T04:19:08;7.63;;;4.28;;
45136;SDS011;30894;51.740;19.498;2022-10-16T04:21:36;10.68;;;4.50;;
45136;SDS011;30894;51.740;19.498;2022-10-16T04:24:05;7.68;;;3.88;;
45136;SDS011;30894;51.740;19.498;2022-10-16T04:26:31;8.15;;;4.10;;
45136;SDS011;30894;51.740;19.498;2022-10-16T04:29:08;12.52;;;4.35;;
45136;SDS011;30894;51.740;19.498;2022-10-16T04:31:43;12.63;;;3.88;;
45136;SDS011;30894;51.740;19.498;2022-10-16T04:34:11;11.85;;;5.25;;
45136;SDS011;30894;51.740;19.498;2022-10-16T04:36:46;9.98;;;4.60;;
45136;SDS011;30894;51.740;19.498;2022-10-16T04:39:14;6.97;;;2.97;;
45136;SDS011;30894;51.740;19.498;2022-10-16T04:41:48;10.15;;;4.45;;
45136;SDS011;30894;51.740;19.498;2022-10-16T04:44:17;9.75;;;4.63;;
45136;SDS011;30894;51.740;19.498;2022-10-16T04:46:51;6.65;;;3.30;;
45136;SDS011;30894;51.740;19.498;2022-10-16T04:49:19;11.63;;;4.57;;
45136;SDS011;30894;51.740;19.498;2022-10-16T04:51:54;14.23;;;5.13;;
45136;SDS011;30894;51.740;19.498;2022-10-16T04:54:22;9.77;;;4.20;;
45136;SDS011;30894;51.740;19.498;2022-10-16T04:56:56;9.55;;;4.65;;
45136;SDS011;30894;51.740;19.498;2022-10-16T04:59:29;8.57;;;4.32;;
45136;SDS011;30894;51.740;19.498;2022-10-16T05:01:57;9.20;;;4.35;;
45136;SDS011;30894;51.740;19.498;2022-10-16T05:04:32;4.18;;;2.88;;
45136;SDS011;30894;51.740;19.498;2022-10-16T05:06:58;16.95;;;5.55;;
45136;SDS011;30894;51.740;19.498;2022-10-16T05:09:32;9.68;;;4.30;;
45136;SDS011;30894;51.740;19.498;2022-10-16T05:12:05;14.68;;;4.60;;
45136;SDS011;30894;51.740;19.498;2022-10-16T05:14:34;14.95;;;4.82;;
45136;SDS011;30894;51.740;19.498;2022-10-16T05:17:07;10.00;;;3.97;;
45136;SDS011;30894;51.740;19.498;2022-10-16T05:19:36;10.77;;;4.40;;
45136;SDS011;30894;51.740;19.498;2022-10-16T05:22:11;14.02;;;6.30;;
45136;SDS011;30894;51.740;19.498;2022-10-16T05:24:39;10.18;;;4.53;;
45136;SDS011;30894;51.740;19.498;2022-10-16T05:27:12;9.90;;;4.68;;
45136;SDS011;30894;51.740;19.498;2022-10-16T05:29:50;10.18;;;4.90;;
45136;SDS011;30894;51.740;19.498;2022-10-16T05:32:30;13.00;;;4.95;;
45136;SDS011;30894;51.740;19.498;2022-10-16T05:34:59;9.77;;;4.90;;
45136;SDS011;30894;51.740;19.498;2022-10-16T05:37:32;10.95;;;4.78;;
45136;SDS011;30894;51.740;19.498;2022-10-16T05:40:05;7.72;;;4.68;;
45136;SDS011;30894;51.740;19.498;2022-10-16T05:42:33;9.95;;;4.60;;
45136;SDS011;30894;51.740;19.498;2022-10-16T05:45:08;7.95;;;4.60;;
45136;SDS011;30894;51.740;19.498;2022-10-16T05:47:37;6.15;;;3.35;;
45136;SDS011;30894;51.740;19.498;2022-10-16T05:50:12;7.75;;;4.00;;
45136;SDS011;30894;51.740;19.498;2022-10-16T05:52:39;8.23;;;4.10;;
45136;SDS011;30894;51.740;19.498;2022-10-16T05:55:12;9.50;;;3.85;;
45136;SDS011;30894;51.740;19.498;2022-10-16T06:00:07;8.10;;;4.47;;
45136;SDS011;30894;51.740;19.498;2022-10-16T06:02:45;7.95;;;4.10;;
45136;SDS011;30894;51.740;19.498;2022-10-16T06:05:20;8.63;;;4.30;;
45136;SDS011;30894;51.740;19.498;2022-10-16T06:07:48;9.18;;;3.83;;
45136;SDS011;30894;51.740;19.498;2022-10-16T06:10:14;8.32;;;2.55;;
45136;SDS011;30894;51.740;19.498;2022-10-16T06:12:49;3.88;;;2.17;;
45136;SDS011;30894;51.740;19.498;2022-10-16T06:15:15;7.50;;;4.47;;
45136;SDS011;30894;51.740;19.498;2022-10-16T06:17:56;10.60;;;4.07;;
45136;SDS011;30894;51.740;19.498;2022-10-16T06:20:24;9.88;;;4.45;;
45136;SDS011;30894;51.740;19.498;2022-10-16T06:22:55;5.70;;;2.53;;
45136;SDS011;30894;51.740;19.498;2022-10-16T06:25:21;7.20;;;3.67;;
45136;SDS011;30894;51.740;19.498;2022-10-16T06:28:00;9.48;;;4.90;;
45136;SDS011;30894;51.740;19.498;2022-10-16T06:30:33;8.88;;;4.40;;
45136;SDS011;30894;51.740;19.498;2022-10-16T06:33:02;8.50;;;4.28;;
45136;SDS011;30894;51.740;19.498;2022-10-16T06:35:36;6.32;;;4.03;;
45136;SDS011;30894;51.740;19.498;2022-10-16T06:38:05;6.72;;;3.95;;
45136;SDS011;30894;51.740;19.498;2022-10-16T06:40:38;6.80;;;3.70;;
45136;SDS011;30894;51.740;19.498;2022-10-16T06:43:07;8.75;;;4.63;;
45136;SDS011;30894;51.740;19.498;2022-10-16T06:45:40;11.27;;;4.70;;
45136;SDS011;30894;51.740;19.498;2022-10-16T06:48:08;11.32;;;4.63;;
45136;SDS011;30894;51.740;19.498;2022-10-16T06:50:42;9.52;;;4.90;;
45136;SDS011;30894;51.740;19.498;2022-10-16T06:53:11;9.40;;;4.55;;
45136;SDS011;30894;51.740;19.498;2022-10-16T06:55:37;10.43;;;4.80;;
45136;SDS011;30894;51.740;19.498;2022-10-16T06:58:09;7.18;;;3.55;;
45136;SDS011;30894;51.740;19.498;2022-10-16T07:00:51;11.18;;;4.75;;
45136;SDS011;30894;51.740;19.498;2022-10-16T07:03:37;15.48;;;4.43;;
45136;SDS011;30894;51.740;19.498;2022-10-16T07:06:05;9.70;;;5.72;;
45136;SDS011;30894;51.740;19.498;2022-10-16T07:08:37;10.27;;;4.65;;
45136;SDS011;30894;51.740;19.498;2022-10-16T07:11:10;8.50;;;4.78;;
45136;SDS011;30894;51.740;19.498;2022-10-16T07:13:53;10.15;;;4.95;;
45136;SDS011;30894;51.740;19.498;2022-10-16T07:16:29;12.07;;;5.10;;
45136;SDS011;30894;51.740;19.498;2022-10-16T07:18:57;13.48;;;5.43;;
45136;SDS011;30894;51.740;19.498;2022-10-16T07:21:28;9.27;;;4.72;;
45136;SDS011;30894;51.740;19.498;2022-10-16T07:24:00;9.00;;;5.05;;
45136;SDS011;30894;51.740;19.498;2022-10-16T07:26:30;9.05;;;5.05;;
45136;SDS011;30894;51.740;19.498;2022-10-16T07:29:01;10.27;;;5.05;;
45136;SDS011;30894;51.740;19.498;2022-10-16T07:31:36;11.55;;;4.40;;
45136;SDS011;30894;51.740;19.498;2022-10-16T07:34:06;11.68;;;5.05;;
45136;SDS011;30894;51.740;19.498;2022-10-16T07:36:32;12.90;;;5.10;;
45136;SDS011;30894;51.740;19.498;2022-10-16T07:39:07;10.55;;;4.72;;
45136;SDS011;30894;51.740;19.498;2022-10-16T07:41:41;11.55;;;5.55;;
45136;SDS011;30894;51.740;19.498;2022-10-16T07:46:36;10.00;;;5.35;;
45136;SDS011;30894;51.740;19.498;2022-10-16T07:49:15;9.13;;;5.00;;
45136;SDS011;30894;51.740;19.498;2022-10-16T07:51:48;14.48;;;5.35;;
45136;SDS011;30894;51.740;19.498;2022-10-16T07:54:16;8.43;;;4.85;;
45136;SDS011;30894;51.740;19.498;2022-10-16T07:56:45;14.77;;;6.13;;
45136;SDS011;30894;51.740;19.498;2022-10-16T07:59:21;8.77;;;5.00;;
45136;SDS011;30894;51.740;19.498;2022-10-16T08:01:48;11.50;;;5.38;;
45136;SDS011;30894;51.740;19.498;2022-10-16T08:04:22;14.90;;;6.63;;
45136;SDS011;30894;51.740;19.498;2022-10-16T08:06:48;14.02;;;5.70;;
45136;SDS011;30894;51.740;19.498;2022-10-16T08:09:24;8.65;;;5.07;;
45136;SDS011;30894;51.740;19.498;2022-10-16T08:11:58;10.65;;;5.30;;
45136;SDS011;30894;51.740;19.498;2022-10-16T08:14:26;7.43;;;4.10;;
45136;SDS011;30894;51.740;19.498;2022-10-16T08:16:55;8.38;;;4.90;;
45136;SDS011;30894;51.740;19.498;2022-10-16T08:19:32;13.25;;;5.38;;
45136;SDS011;30894;51.740;19.498;2022-10-16T08:22:02;13.20;;;5.00;;
45136;SDS011;30894;51.740;19.498;2022-10-16T08:24:31;7.35;;;4.65;;
45136;SDS011;30894;51.740;19.498;2022-10-16T08:27:03;12.88;;;5.65;;
45136;SDS011;30894;51.740;19.498;2022-10-16T08:29:32;14.85;;;5.05;;
45136;SDS011;30894;51.740;19.498;2022-10-16T08:32:04;11.35;;;5.30;;
45136;SDS011;30894;51.740;19.498;2022-10-16T08:34:36;5.75;;;3.30;;
45136;SDS011;30894;51.740;19.498;2022-10-16T08:37:11;9.65;;;4.82;;
45136;SDS011;30894;51.740;19.498;2022-10-16T08:39:41;10.80;;;5.03;;
45136;SDS011;30894;51.740;19.498;2022-10-16T08:48:12;12.85;;;5.43;;
45136;SDS011;30894;51.740;19.498;2022-10-16T08:50:48;10.60;;;5.45;;
45136;SDS011;30894;51.740;19.498;2022-10-16T08:53:20;7.35;;;4.90;;
45136;SDS011;30894;51.740;19.498;2022-10-16T08:56:05;10.27;;;4.75;;
45136;SDS011;30894;51.740;19.498;2022-10-16T08:58:32;9.13;;;5.13;;
45136;SDS011;30894;51.740;19.498;2022-10-16T09:01:11;8.50;;;4.68;;
45136;SDS011;30894;51.740;19.498;2022-10-16T09:18:07;12.25;;;4.80;;
45136;SDS011;30894;51.740;19.498;2022-10-16T09:23:52;11.30;;;5.75;;
45136;SDS011;30894;51.740;19.498;2022-10-16T09:26:22;9.95;;;5.00;;
45136;SDS011;30894;51.740;19.498;2022-10-16T09:28:52;8.48;;;4.38;;
45136;SDS011;30894;51.740;19.498;2022-10-16T09:31:25;11.07;;;5.40;;
45136;SDS011;30894;51.740;19.498;2022-10-16T09:33:58;10.57;;;5.20;;
45136;SDS011;30894;51.740;19.498;2022-10-16T09:36:43;9.52;;;4.90;;
45136;SDS011;30894;51.740;19.498;2022-10-16T09:39:12;11.25;;;6.55;;
45136;SDS011;30894;51.740;19.498;2022-10-16T09:41:39;11.13;;;4.90;;
45136;SDS011;30894;51.740;19.498;2022-10-16T09:44:30;13.80;;;4.95;;
45136;SDS011;30894;51.740;19.498;2022-10-16T09:47:04;14.27;;;5.13;;
45136;SDS011;30894;51.740;19.498;2022-10-16T09:55:56;8.20;;;4.70;;
45136;SDS011;30894;51.740;19.498;2022-10-16T09:58:24;14.05;;;5.18;;
45136;SDS011;30894;51.740;19.498;2022-10-16T10:00:58;6.38;;;4.10;;
45136;SDS011;30894;51.740;19.498;2022-10-16T10:03:33;7.93;;;3.92;;
45136;SDS011;30894;51.740;19.498;2022-10-16T10:06:52;10.85;;;4.90;;
45136;SDS011;30894;51.740;19.498;2022-10-16T10:09:33;10.38;;;4.55;;
45136;SDS011;30894;51.740;19.498;2022-10-16T10:12:16;11.35;;;5.15;;
45136;SDS011;30894;51.740;19.498;2022-10-16T10:14:52;8.18;;;4.25;;
45136;SDS011;30894;51.740;19.498;2022-10-16T10:22:59;9.23;;;4.22;;
45136;SDS011;30894;51.740;19.498;2022-10-16T10:25:41;6.25;;;4.28;;
45136;SDS011;30894;51.740;19.498;2022-10-16T10:28:35;7.93;;;4.15;;
45136;SDS011;30894;51.740;19.498;2022-10-16T10:31:29;8.20;;;4.20;;
45136;SDS011;30894;51.740;19.498;2022-10-16T10:37:19;7.00;;;4.18;;
45136;SDS011;30894;51.740;19.498;2022-10-16T10:40:03;8.40;;;3.78;;
45136;SDS011;30894;51.740;19.498;2022-10-16T10:46:05;5.47;;;3.20;;
45136;SDS011;30894;51.740;19.498;2022-10-16T10:51:47;5.72;;;2.90;;
45136;SDS011;30894;51.740;19.498;2022-10-16T11:07:27;11.77;;;3.80;;
45136;SDS011;30894;51.740;19.498;2022-10-16T11:10:12;5.50;;;3.50;;
45136;SDS011;30894;51.740;19.498;2022-10-16T11:13:04;5.82;;;3.45;;
45136;SDS011;30894;51.740;19.498;2022-10-16T11:16:00;7.63;;;3.00;;
45136;SDS011;30894;51.740;19.498;2022-10-16T11:18:40;4.43;;;2.95;;
45136;SDS011;30894;51.740;19.498;2022-10-16T11:21:23;4.65;;;2.80;;
45136;SDS011;30894;51.740;19.498;2022-10-16T11:26:37;5.45;;;2.95;;
45136;SDS011;30894;51.740;19.498;2022-10-16T11:29:12;7.03;;;3.42;;
45136;SDS011;30894;51.740;19.498;2022-10-16T11:31:56;4.72;;;3.33;;
45136;SDS011;30894;51.740;19.498;2022-10-16T11:34:36;4.22;;;2.40;;
45136;SDS011;30894;51.740;19.498;2022-10-16T11:37:11;6.15;;;3.25;;
45136;SDS011;30894;51.740;19.498;2022-10-16T11:39:44;8.55;;;3.05;;
45136;SDS011;30894;51.740;19.498;2022-10-16T11:47:51;3.75;;;2.58;;
45136;SDS011;30894;51.740;19.498;2022-10-16T11:50:29;5.18;;;3.00;;
45136;SDS011;30894;51.740;19.498;2022-10-16T11:56:28;5.53;;;2.78;;
45136;SDS011;30894;51.740;19.498;2022-10-16T11:59:06;5.90;;;3.20;;
45136;SDS011;30894;51.740;19.498;2022-10-16T12:01:48;6.28;;;3.33;;
45136;SDS011;30894;51.740;19.498;2022-10-16T12:04:42;4.83;;;2.90;;
45136;SDS011;30894;51.740;19.498;2022-10-16T12:07:27;5.78;;;3.55;;
45136;SDS011;30894;51.740;19.498;2022-10-16T12:12:50;5.28;;;2.88;;
45136;SDS011;30894;51.740;19.498;2022-10-16T12:15:23;4.80;;;2.67;;
45136;SDS011;30894;51.740;19.498;2022-10-16T12:17:55;7.43;;;3.17;;
45136;SDS011;30894;51.740;19.498;2022-10-16T12:20:29;4.38;;;2.80;;
45136;SDS011;30894;51.740;19.498;2022-10-16T12:23:04;5.85;;;2.88;;
45136;SDS011;30894;51.740;19.498;2022-10-16T12:25:35;6.40;;;3.75;;
45136;SDS011;30894;51.740;19.498;2022-10-16T12:30:41;6.70;;;2.75;;
45136;SDS011;30894;51.740;19.498;2022-10-16T12:33:19;6.53;;;3.40;;
45136;SDS011;30894;51.740;19.498;2022-10-16T12:35:52;6.45;;;3.53;;
45136;SDS011;30894;51.740;19.498;2022-10-16T12:39:04;7.07;;;3.15;;
45136;SDS011;30894;51.740;19.498;2022-10-16T12:41:34;6.82;;;3.38;;
45136;SDS011;30894;51.740;19.498;2022-10-16T12:44:05;4.70;;;3.15;;
45136;SDS011;30894;51.740;19.498;2022-10-16T12:46:51;8.75;;;3.20;;
45136;SDS011;30894;51.740;19.498;2022-10-16T12:51:59;7.20;;;3.30;;
45136;SDS011;30894;51.740;19.498;2022-10-16T13:11:43;6.47;;;3.10;;
45136;SDS011;30894;51.740;19.498;2022-10-16T13:25:47;4.65;;;2.78;;
45136;SDS011;30894;51.740;19.498;2022-10-16T13:28:29;5.22;;;3.03;;
45136;SDS011;30894;51.740;19.498;2022-10-16T13:31:00;4.47;;;2.67;;
45136;SDS011;30894;51.740;19.498;2022-10-16T13:33:37;7.15;;;3.63;;
45136;SDS011;30894;51.740;19.498;2022-10-16T13:36:18;5.05;;;2.80;;
45136;SDS011;30894;51.740;19.498;2022-10-16T13:38:47;5.03;;;3.10;;
45136;SDS011;30894;51.740;19.498;2022-10-16T13:41:16;6.30;;;2.85;;
45136;SDS011;30894;51.740;19.498;2022-10-16T13:46:16;5.10;;;3.10;;
45136;SDS011;30894;51.740;19.498;2022-10-16T13:48:57;5.13;;;2.58;;
45136;SDS011;30894;51.740;19.498;2022-10-16T13:51:31;5.13;;;3.10;;
45136;SDS011;30894;51.740;19.498;2022-10-16T13:53:58;3.72;;;2.05;;
45136;SDS011;30894;51.740;19.498;2022-10-16T13:56:29;4.65;;;3.10;;
45136;SDS011;30894;51.740;19.498;2022-10-16T13:59:03;6.38;;;3.17;;
45136;SDS011;30894;51.740;19.498;2022-10-16T14:01:42;5.47;;;3.15;;
45136;SDS011;30894;51.740;19.498;2022-10-16T14:04:10;8.70;;;3.50;;
45136;SDS011;30894;51.740;19.498;2022-10-16T14:06:43;7.40;;;3.50;;
45136;SDS011;30894;51.740;19.498;2022-10-16T14:09:14;8.57;;;3.85;;
45136;SDS011;30894;51.740;19.498;2022-10-16T14:11:57;8.20;;;3.28;;
45136;SDS011;30894;51.740;19.498;2022-10-16T14:14:34;5.45;;;3.30;;
45136;SDS011;30894;51.740;19.498;2022-10-16T14:17:14;6.13;;;3.22;;
45136;SDS011;30894;51.740;19.498;2022-10-16T14:19:53;7.18;;;3.65;;
45136;SDS011;30894;51.740;19.498;2022-10-16T14:22:26;7.63;;;4.32;;
45136;SDS011;30894;51.740;19.498;2022-10-16T14:28:04;7.65;;;3.67;;
45136;SDS011;30894;51.740;19.498;2022-10-16T14:30:49;6.05;;;3.65;;
45136;SDS011;30894;51.740;19.498;2022-10-16T14:36:10;9.07;;;3.80;;
45136;SDS011;30894;51.740;19.498;2022-10-16T14:41:08;5.28;;;3.33;;
45136;SDS011;30894;51.740;19.498;2022-10-16T14:43:41;5.88;;;3.35;;
45136;SDS011;30894;51.740;19.498;2022-10-16T14:48:41;9.07;;;4.40;;
45136;SDS011;30894;51.740;19.498;2022-10-16T14:51:25;10.50;;;4.00;;
45136;SDS011;30894;51.740;19.498;2022-10-16T14:54:02;6.68;;;3.58;;
45136;SDS011;30894;51.740;19.498;2022-10-16T14:56:30;7.15;;;3.45;;
45136;SDS011;30894;51.740;19.498;2022-10-16T14:59:25;7.68;;;3.55;;
45136;SDS011;30894;51.740;19.498;2022-10-16T15:01:57;6.30;;;3.40;;
45136;SDS011;30894;51.740;19.498;2022-10-16T15:04:23;5.82;;;3.63;;
45136;SDS011;30894;51.740;19.498;2022-10-16T15:06:50;5.68;;;3.67;;
45136;SDS011;30894;51.740;19.498;2022-10-16T15:09:18;6.47;;;4.28;;
45136;SDS011;30894;51.740;19.498;2022-10-16T15:11:45;13.40;;;4.28;;
45136;SDS011;30894;51.740;19.498;2022-10-16T15:14:12;7.38;;;3.58;;
45136;SDS011;30894;51.740;19.498;2022-10-16T15:16:40;6.38;;;3.88;;
45136;SDS011;30894;51.740;19.498;2022-10-16T15:19:06;6.30;;;3.97;;
45136;SDS011;30894;51.740;19.498;2022-10-16T15:21:33;8.77;;;5.25;;
45136;SDS011;30894;51.740;19.498;2022-10-16T15:23:59;8.35;;;3.95;;
45136;SDS011;30894;51.740;19.498;2022-10-16T15:26:26;9.48;;;4.40;;
45136;SDS011;30894;51.740;19.498;2022-10-16T15:28:54;7.45;;;4.07;;
45136;SDS011;30894;51.740;19.498;2022-10-16T15:31:21;9.30;;;4.40;;
45136;SDS011;30894;51.740;19.498;2022-10-16T15:33:53;8.10;;;4.10;;
45136;SDS011;30894;51.740;19.498;2022-10-16T15:36:28;7.93;;;4.20;;
45136;SDS011;30894;51.740;19.498;2022-10-16T15:39:08;6.97;;;4.05;;
45136;SDS011;30894;51.740;19.498;2022-10-16T15:41:45;9.95;;;4.60;;
45136;SDS011;30894;51.740;19.498;2022-10-16T15:44:19;8.82;;;4.63;;
45136;SDS011;30894;51.740;19.498;2022-10-16T15:46:53;8.82;;;4.50;;
45136;SDS011;30894;51.740;19.498;2022-10-16T15:49:20;9.70;;;4.90;;
45136;SDS011;30894;51.740;19.498;2022-10-16T15:51:48;11.73;;;4.68;;
45136;SDS011;30894;51.740;19.498;2022-10-16T15:54:18;14.80;;;5.47;;
45136;SDS011;30894;51.740;19.498;2022-10-16T15:56:48;9.68;;;4.78;;
45136;SDS011;30894;51.740;19.498;2022-10-16T15:59:14;10.63;;;5.35;;
45136;SDS011;30894;51.740;19.498;2022-10-16T16:01:44;10.07;;;4.80;;
45136;SDS011;30894;51.740;19.498;2022-10-16T16:04:11;12.00;;;4.82;;
45136;SDS011;30894;51.740;19.498;2022-10-16T16:06:38;8.10;;;4.53;;
45136;SDS011;30894;51.740;19.498;2022-10-16T16:09:13;18.83;;;7.68;;
45136;SDS011;30894;51.740;19.498;2022-10-16T16:11:40;9.18;;;5.10;;
45136;SDS011;30894;51.740;19.498;2022-10-16T16:14:10;10.88;;;4.90;;
45136;SDS011;30894;51.740;19.498;2022-10-16T16:16:39;10.00;;;5.07;;
45136;SDS011;30894;51.740;19.498;2022-10-16T16:19:14;14.45;;;5.25;;
45136;SDS011;30894;51.740;19.498;2022-10-16T16:21:43;10.57;;;5.00;;
45136;SDS011;30894;51.740;19.498;2022-10-16T16:24:12;11.50;;;5.20;;
45136;SDS011;30894;51.740;19.498;2022-10-16T16:26:42;16.95;;;6.10;;
45136;SDS011;30894;51.740;19.498;2022-10-16T16:29:13;14.75;;;5.90;;
45136;SDS011;30894;51.740;19.498;2022-10-16T16:31:43;14.98;;;5.50;;
45136;SDS011;30894;51.740;19.498;2022-10-16T16:34:19;9.35;;;5.60;;
45136;SDS011;30894;51.740;19.498;2022-10-16T16:36:51;10.98;;;5.63;;
45136;SDS011;30894;51.740;19.498;2022-10-16T16:39:23;12.57;;;5.60;;
45136;SDS011;30894;51.740;19.498;2022-10-16T16:41:52;12.48;;;5.78;;
45136;SDS011;30894;51.740;19.498;2022-10-16T16:44:25;10.95;;;5.25;;
45136;SDS011;30894;51.740;19.498;2022-10-16T16:46:52;10.50;;;4.90;;
45136;SDS011;30894;51.740;19.498;2022-10-16T22:31:14;22.13;;;9.35;;
45136;SDS011;30894;51.740;19.498;2022-10-16T22:33:44;17.30;;;8.32;;
45136;SDS011;30894;51.740;19.498;2022-10-16T22:36:10;17.33;;;7.90;;
45136;SDS011;30894;51.740;19.498;2022-10-16T22:38:39;18.73;;;8.05;;
45136;SDS011;30894;51.740;19.498;2022-10-16T22:41:07;15.18;;;8.13;;
45136;SDS011;30894;51.740;19.498;2022-10-16T22:43:37;16.95;;;7.60;;
45136;SDS011;30894;51.740;19.498;2022-10-16T22:46:07;19.60;;;7.72;;
45136;SDS011;30894;51.740;19.498;2022-10-16T22:48:38;18.33;;;8.68;;
45136;SDS011;30894;51.740;19.498;2022-10-16T22:51:05;16.30;;;7.57;;
45136;SDS011;30894;51.740;19.498;2022-10-16T22:53:32;21.20;;;8.32;;
45136;SDS011;30894;51.740;19.498;2022-10-16T22:55:58;16.50;;;8.25;;
45136;SDS011;30894;51.740;19.498;2022-10-16T22:58:25;18.75;;;9.02;;
45136;SDS011;30894;51.740;19.498;2022-10-16T23:00:52;17.90;;;9.07;;
45136;SDS011;30894;51.740;19.498;2022-10-16T23:03:18;19.60;;;8.57;;
45136;SDS011;30894;51.740;19.498;2022-10-16T23:05:44;15.40;;;8.07;;
45136;SDS011;30894;51.740;19.498;2022-10-16T23:08:11;18.00;;;8.40;;
45136;SDS011;30894;51.740;19.498;2022-10-16T23:10:37;19.13;;;9.00;;
45136;SDS011;30894;51.740;19.498;2022-10-16T23:13:06;21.70;;;7.68;;
45136;SDS011;30894;51.740;19.498;2022-10-16T23:15:37;21.67;;;9.15;;
45136;SDS011;30894;51.740;19.498;2022-10-16T23:18:05;22.33;;;9.38;;
45136;SDS011;30894;51.740;19.498;2022-10-16T23:20:33;18.90;;;9.05;;
45136;SDS011;30894;51.740;19.498;2022-10-16T23:23:03;21.00;;;9.23;;
45136;SDS011;30894;51.740;19.498;2022-10-16T23:25:29;16.42;;;8.02;;